createdAt,value
2017-10-08T00:01:33.206Z,99.99
2017-10-08T00:04:27.343Z,99.99
2017-10-08T00:05:28.034Z,99.99
2017-10-08T00:06:27.564Z,99.99
2017-10-08T00:07:50.933Z,99.99
2017-10-08T00:08:50.901Z,99.99
2017-10-08T00:09:51.151Z,99.99
2017-10-08T00:10:50.579Z,99.99
2017-10-08T00:12:13.569Z,99.99
2017-10-08T00:13:14.200Z,99.99
2017-10-08T00:14:36.374Z,99.99
2017-10-08T00:16:21.553Z,99.99
2017-10-08T00:17:22.298Z,99.99
2017-10-08T00:19:06.614Z,99.99
2017-10-08T00:20:07.251Z,99.99
2017-10-08T00:21:29.525Z,99.99
2017-10-08T00:22:30.158Z,99.99
2017-10-08T00:23:52.333Z,99.99
2017-10-08T00:25:37.329Z,99.99
2017-10-08T00:27:21.964Z,99.99
2017-10-08T00:28:52.880Z,99.99
2017-10-08T00:30:37.656Z,99.99
2017-10-08T00:31:38.086Z,99.99
2017-10-08T00:32:38.399Z,99.99
2017-10-08T00:33:38.060Z,99.99
2017-10-08T00:34:39.137Z,99.99
2017-10-08T00:35:38.450Z,99.99
2017-10-08T00:36:59.894Z,99.99
2017-10-08T00:38:22.843Z,99.99
2017-10-08T00:39:45.519Z,99.99
2017-10-08T00:40:45.801Z,99.99
2017-10-08T00:41:46.138Z,99.99
2017-10-08T00:42:45.888Z,99.99
2017-10-08T00:43:46.155Z,99.99
2017-10-08T00:44:46.626Z,99.99
2017-10-08T00:45:46.269Z,99.99
2017-10-08T00:46:45.523Z,99.99
2017-10-08T00:47:45.956Z,99.99
2017-10-08T00:48:46.424Z,99.99
2017-10-08T00:49:45.622Z,99.99
2017-10-08T00:50:46.454Z,99.99
2017-10-08T00:52:07.717Z,99.99
2017-10-08T00:53:08.012Z,99.99
2017-10-08T00:54:08.141Z,99.99
2017-10-08T00:55:53.114Z,99.99
2017-10-08T00:57:15.770Z,99.99
2017-10-08T00:58:15.976Z,99.99
2017-10-08T00:59:39.339Z,99.99
2017-10-08T01:00:39.749Z,99.99
2017-10-08T01:01:40.607Z,99.99
2017-10-08T01:03:24.560Z,99.99
2017-10-08T01:04:25.048Z,99.99
2017-10-08T01:05:24.403Z,99.99
2017-10-08T01:06:24.963Z,99.99
2017-10-08T01:07:24.638Z,99.99
2017-10-08T01:08:24.920Z,99.99
2017-10-08T01:11:16.454Z,99.99
2017-10-08T01:12:17.274Z,99.99
2017-10-08T01:13:16.859Z,99.99
2017-10-08T01:14:17.586Z,99.99
2017-10-08T01:15:17.183Z,99.99
2017-10-08T01:16:16.595Z,99.99
2017-10-08T01:17:17.163Z,99.99
2017-10-08T01:18:18.398Z,99.99
2017-10-08T01:19:39.596Z,99.99
2017-10-08T01:20:40.118Z,99.99
2017-10-08T01:22:01.871Z,99.99
2017-10-08T01:24:09.052Z,99.99
2017-10-08T01:25:09.101Z,99.99
2017-10-08T01:26:10.219Z,99.99
2017-10-08T01:27:09.836Z,99.99
2017-10-08T01:28:09.355Z,99.99
2017-10-08T01:29:10.099Z,99.99
2017-10-08T01:30:09.235Z,99.99
2017-10-08T01:31:32.351Z,99.99
2017-10-08T01:33:39.911Z,99.99
2017-10-08T01:34:40.932Z,99.99
2017-10-08T01:36:02.725Z,99.99
2017-10-08T01:37:03.094Z,99.99
2017-10-08T01:38:26.304Z,99.99
2017-10-08T01:39:51.304Z,99.99
2017-10-08T01:42:20.186Z,99.99
2017-10-08T01:43:43.105Z,99.99
2017-10-08T01:44:43.343Z,99.99
2017-10-08T01:45:43.109Z,99.99
2017-10-08T01:46:43.398Z,99.99
2017-10-08T01:48:05.934Z,99.99
2017-10-08T01:49:51.247Z,99.99
2017-10-08T01:50:51.875Z,99.99
2017-10-08T01:52:36.664Z,99.99
2017-10-08T01:53:37.455Z,99.99
2017-10-08T01:54:37.328Z,99.99
2017-10-08T01:56:00.558Z,99.99
2017-10-08T01:57:22.127Z,99.99
2017-10-08T01:58:44.912Z,99.99
2017-10-08T01:59:45.242Z,99.99
2017-10-08T02:01:07.998Z,99.99
2017-10-08T02:02:07.823Z,99.99
2017-10-08T02:03:08.096Z,99.99
2017-10-08T02:04:07.978Z,99.99
2017-10-08T02:05:31.726Z,99.99
2017-10-08T02:06:32.325Z,99.99
2017-10-08T02:07:32.210Z,99.99
2017-10-08T02:08:31.828Z,99.99
2017-10-08T02:09:31.950Z,99.99
2017-10-08T02:11:39.004Z,99.99
2017-10-08T02:13:00.689Z,99.99
2017-10-08T02:14:23.919Z,99.99
2017-10-08T02:15:24.309Z,99.99
2017-10-08T02:16:47.242Z,99.99
2017-10-08T02:17:47.751Z,99.99
2017-10-08T02:18:47.240Z,99.99
2017-10-08T02:20:32.025Z,99.99
2017-10-08T02:22:19.501Z,99.99
2017-10-08T02:24:26.029Z,99.99
2017-10-08T02:25:26.608Z,99.99
2017-10-08T02:27:11.541Z,99.99
2017-10-08T02:28:12.079Z,99.99
2017-10-08T02:29:11.257Z,99.99
2017-10-08T02:30:55.774Z,99.99
2017-10-08T02:31:56.309Z,99.99
2017-10-08T02:32:57.125Z,99.99
2017-10-08T02:34:18.557Z,99.99
2017-10-08T02:37:32.905Z,99.99
2017-10-08T02:38:34.861Z,99.99
2017-10-08T02:39:32.728Z,99.99
2017-10-08T02:40:33.389Z,99.99
2017-10-08T02:41:56.205Z,99.99
2017-10-08T02:42:56.891Z,99.99
2017-10-08T02:45:26.290Z,99.99
2017-10-08T02:46:26.994Z,99.99
2017-10-08T02:47:26.128Z,99.99
2017-10-08T02:48:26.798Z,99.99
2017-10-08T02:49:28.248Z,99.99
2017-10-08T02:51:10.526Z,99.99
2017-10-08T02:52:11.335Z,99.99
2017-10-08T02:53:56.404Z,99.99
2017-10-08T02:56:04.077Z,99.99
2017-10-08T02:57:04.408Z,99.99
2017-10-08T02:59:11.523Z,99.99
2017-10-08T03:00:12.576Z,99.99
2017-10-08T03:01:12.388Z,99.99
2017-10-08T03:02:33.887Z,99.99
2017-10-08T03:03:56.595Z,99.99
2017-10-08T03:05:19.998Z,99.99
2017-10-08T03:06:43.867Z,99.99
2017-10-08T03:08:06.675Z,99.99
2017-10-08T03:09:51.249Z,99.99
2017-10-08T03:11:16.145Z,99.99
2017-10-08T03:13:23.626Z,99.99
2017-10-08T03:14:46.078Z,99.99
2017-10-08T03:15:46.152Z,99.99
2017-10-08T03:16:46.854Z,99.99
2017-10-08T03:17:46.757Z,99.99
2017-10-08T03:19:09.332Z,99.99
2017-10-08T03:20:31.901Z,99.99
2017-10-08T03:21:32.199Z,99.99
2017-10-08T03:24:47.615Z,99.99
2017-10-08T03:26:10.206Z,99.99
2017-10-08T03:27:10.570Z,99.99
2017-10-08T03:29:18.566Z,99.99
2017-10-08T03:31:48.350Z,99.99
2017-10-08T03:33:33.413Z,99.99
2017-10-08T03:34:57.220Z,99.99
2017-10-08T03:36:19.986Z,99.99
2017-10-08T03:37:20.653Z,99.99
2017-10-08T03:38:20.547Z,99.99
2017-10-08T03:39:42.090Z,99.99
2017-10-08T03:40:42.376Z,99.99
2017-10-08T03:41:42.508Z,99.99
2017-10-08T03:43:05.655Z,99.99
2017-10-08T03:44:06.804Z,99.99
2017-10-08T03:46:34.064Z,99.99
2017-10-08T03:47:35.095Z,99.99
2017-10-08T03:48:56.622Z,99.99
2017-10-08T03:49:58.645Z,99.99
2017-10-08T03:51:19.760Z,99.99
2017-10-08T03:52:20.544Z,99.99
2017-10-08T03:53:20.011Z,99.99
2017-10-08T03:55:05.260Z,99.99
2017-10-08T03:56:50.202Z,99.99
2017-10-08T03:58:12.357Z,99.99
2017-10-08T03:59:13.429Z,99.99
2017-10-08T04:00:13.290Z,99.99
2017-10-08T04:01:12.922Z,99.99
2017-10-08T04:04:04.401Z,99.99
2017-10-08T04:06:11.320Z,99.99
2017-10-08T04:07:11.864Z,99.99
2017-10-08T04:08:11.436Z,99.99
2017-10-08T04:09:12.339Z,99.99
2017-10-08T04:10:11.773Z,99.99
2017-10-08T04:11:12.321Z,99.99
2017-10-08T04:12:34.662Z,99.99
2017-10-08T04:13:57.536Z,99.99
2017-10-08T04:15:20.413Z,99.99
2017-10-08T04:16:20.565Z,99.99
2017-10-08T04:17:43.001Z,99.99
2017-10-08T04:19:05.416Z,99.99
2017-10-08T04:20:05.705Z,99.99
2017-10-08T04:21:28.194Z,99.99
2017-10-08T04:23:13.050Z,99.99
2017-10-08T04:24:35.995Z,99.99
2017-10-08T04:25:58.985Z,99.99
2017-10-08T04:26:59.965Z,99.99
2017-10-08T04:27:59.168Z,99.99
2017-10-08T04:30:06.079Z,99.99
2017-10-08T04:31:51.182Z,99.99
2017-10-08T04:33:13.937Z,99.99
2017-10-08T04:34:14.406Z,99.99
2017-10-08T04:35:14.676Z,99.99
2017-10-08T04:36:14.410Z,99.99
2017-10-08T04:37:15.262Z,99.99
2017-10-08T04:38:15.109Z,99.99
2017-10-08T04:39:14.304Z,99.99
2017-10-08T04:40:15.009Z,99.99
2017-10-08T04:41:58.725Z,99.99
2017-10-08T04:42:58.956Z,99.99
2017-10-08T04:43:59.011Z,99.99
2017-10-08T04:44:58.785Z,99.99
2017-10-08T04:47:06.405Z,99.99
2017-10-08T04:48:06.980Z,99.99
2017-10-08T04:50:36.879Z,99.99
2017-10-08T04:52:22.519Z,99.99
2017-10-08T04:53:22.995Z,99.99
2017-10-08T04:54:23.559Z,99.99
2017-10-08T04:55:44.742Z,99.99
2017-10-08T04:57:30.669Z,99.99
2017-10-08T04:58:31.298Z,99.99
2017-10-08T04:59:53.563Z,99.99
2017-10-08T05:02:22.599Z,99.99
2017-10-08T05:03:22.776Z,99.99
2017-10-08T05:04:23.311Z,99.99
2017-10-08T05:05:25.293Z,99.99
2017-10-08T05:06:23.953Z,99.99
2017-10-08T05:08:08.222Z,99.99
2017-10-08T05:09:08.451Z,99.99
2017-10-08T05:11:39.538Z,99.99
2017-10-08T05:13:02.582Z,99.99
2017-10-08T05:15:11.547Z,99.99
2017-10-08T05:16:36.348Z,99.99
2017-10-08T05:17:36.560Z,99.99
2017-10-08T05:19:00.205Z,99.99
2017-10-08T05:21:08.047Z,99.99
2017-10-08T05:24:00.129Z,99.99
2017-10-08T05:25:00.751Z,99.99
2017-10-08T05:26:00.524Z,99.99
2017-10-08T05:27:45.431Z,99.99
2017-10-08T05:28:46.174Z,99.99
2017-10-08T05:29:45.090Z,99.99
2017-10-08T05:30:45.318Z,99.99
2017-10-08T05:31:45.955Z,99.99
2017-10-08T05:33:30.107Z,99.99
2017-10-08T05:34:30.897Z,99.99
2017-10-08T05:35:29.907Z,99.99
2017-10-08T05:36:30.039Z,99.99
2017-10-08T05:37:52.942Z,99.99
2017-10-08T05:38:53.222Z,99.99
2017-10-08T05:39:52.624Z,99.99
2017-10-08T05:40:52.897Z,99.99
2017-10-08T05:41:53.288Z,99.99
2017-10-08T05:43:38.031Z,99.99
2017-10-08T05:45:00.631Z,99.99
2017-10-08T05:46:01.083Z,99.99
2017-10-08T05:47:01.829Z,99.99
2017-10-08T05:48:01.635Z,99.99
2017-10-08T05:49:00.973Z,99.99
2017-10-08T05:50:01.627Z,99.99
2017-10-08T05:51:01.466Z,99.99
2017-10-08T05:52:00.780Z,99.99
2017-10-08T05:53:47.770Z,99.99
2017-10-08T05:55:10.642Z,99.99
2017-10-08T05:56:11.301Z,99.99
2017-10-08T05:57:56.205Z,99.99
2017-10-08T05:58:56.730Z,99.99
2017-10-08T06:00:41.750Z,99.99
2017-10-08T06:01:41.869Z,99.99
2017-10-08T06:03:04.520Z,99.99
2017-10-08T06:04:49.577Z,99.99
2017-10-08T06:05:49.827Z,99.99
2017-10-08T06:07:12.580Z,99.99
2017-10-08T06:08:12.898Z,99.99
2017-10-08T06:09:59.409Z,99.99
2017-10-08T06:11:44.151Z,99.99
2017-10-08T06:12:44.796Z,99.99
2017-10-08T06:14:06.793Z,99.99
2017-10-08T06:16:36.154Z,99.99
2017-10-08T06:17:58.534Z,99.99
2017-10-08T06:18:58.544Z,99.99
2017-10-08T06:20:43.457Z,99.99
2017-10-08T06:22:06.451Z,99.99
2017-10-08T06:23:06.675Z,99.99
2017-10-08T06:24:07.412Z,99.99
2017-10-08T06:25:06.837Z,99.99
2017-10-08T06:26:30.460Z,99.99
2017-10-08T06:27:31.148Z,99.99
2017-10-08T06:28:52.372Z,99.99
2017-10-08T06:29:52.707Z,99.99
2017-10-08T06:30:52.921Z,99.99
2017-10-08T06:32:16.086Z,99.99
2017-10-08T06:33:17.133Z,99.99
2017-10-08T06:34:16.530Z,99.99
2017-10-08T06:35:39.110Z,99.99
2017-10-08T06:36:39.263Z,99.99
2017-10-08T06:38:01.653Z,99.99
2017-10-08T06:39:25.221Z,99.99
2017-10-08T06:41:08.976Z,99.99
2017-10-08T06:42:55.083Z,99.99
2017-10-08T06:44:39.350Z,99.99
2017-10-08T06:45:40.035Z,99.99
2017-10-08T06:46:40.353Z,99.99
2017-10-08T06:47:39.787Z,99.99
2017-10-08T06:49:26.233Z,99.99
2017-10-08T06:50:48.913Z,99.99
2017-10-08T06:52:11.504Z,99.99
2017-10-08T06:53:33.878Z,99.99
2017-10-08T06:54:57.185Z,99.99
2017-10-08T06:56:19.724Z,99.99
2017-10-08T06:57:20.387Z,99.99
2017-10-08T06:58:42.014Z,99.99
2017-10-08T06:59:44.673Z,99.99
2017-10-08T07:01:04.066Z,99.99
2017-10-08T07:02:48.211Z,99.99
2017-10-08T07:04:11.556Z,99.99
2017-10-08T07:05:35.522Z,99.99
2017-10-08T07:06:36.275Z,99.99
2017-10-08T07:07:35.620Z,99.99
2017-10-08T07:11:33.860Z,99.99
2017-10-08T07:12:34.209Z,99.99
2017-10-08T07:14:17.970Z,99.99
2017-10-08T07:15:18.432Z,99.99
2017-10-08T07:16:19.166Z,99.99
2017-10-08T07:17:18.520Z,99.99
2017-10-08T07:19:03.338Z,99.99
2017-10-08T07:20:48.445Z,99.99
2017-10-08T07:21:48.960Z,99.99
2017-10-08T07:22:48.405Z,99.99
2017-10-08T07:23:49.366Z,99.99
2017-10-08T07:24:48.736Z,99.99
2017-10-08T07:25:48.151Z,99.99
2017-10-08T07:26:48.844Z,99.99
2017-10-08T07:27:48.285Z,99.99
2017-10-08T07:29:10.666Z,99.99
2017-10-08T07:30:12.731Z,99.99
2017-10-08T07:31:11.131Z,99.99
2017-10-08T07:32:11.856Z,99.99
2017-10-08T07:33:11.437Z,99.99
2017-10-08T07:34:11.056Z,99.99
2017-10-08T07:35:11.294Z,99.99
2017-10-08T07:36:10.649Z,99.99
2017-10-08T07:37:34.218Z,99.99
2017-10-08T07:40:04.828Z,99.99
2017-10-08T07:41:50.381Z,99.99
2017-10-08T07:43:13.390Z,99.99
2017-10-08T07:44:13.756Z,99.99
2017-10-08T07:45:37.200Z,99.99
2017-10-08T07:46:37.773Z,99.99
2017-10-08T07:47:59.653Z,99.99
2017-10-08T07:49:00.089Z,99.99
2017-10-08T07:49:59.638Z,99.99
2017-10-08T07:51:00.359Z,99.99
2017-10-08T07:51:59.806Z,99.99
2017-10-08T07:53:24.676Z,99.99
2017-10-08T07:54:25.142Z,99.99
2017-10-08T07:55:24.662Z,99.99
2017-10-08T07:56:25.365Z,99.99
2017-10-08T07:57:24.786Z,99.99
2017-10-08T07:58:25.270Z,99.47
2017-10-08T07:59:24.831Z,99.62
2017-10-08T08:01:31.692Z,99.33
2017-10-08T08:02:33.050Z,98.37
2017-10-08T08:03:32.775Z,97.13
2017-10-08T08:04:32.289Z,98.08
2017-10-08T08:05:31.851Z,99.43
2017-10-08T08:06:32.396Z,98.52
2017-10-08T08:07:54.033Z,98.71
2017-10-08T08:08:54.465Z,98.71
2017-10-08T08:10:17.215Z,98.99
2017-10-08T08:11:17.804Z,99.37
2017-10-08T08:12:17.600Z,99.47
2017-10-08T08:13:17.361Z,99.28
2017-10-08T08:14:18.501Z,99.76
2017-10-08T08:15:40.134Z,99.66
2017-10-08T08:18:10.194Z,99.04
2017-10-08T08:19:11.321Z,99.62
2017-10-08T08:20:11.130Z,97.99
2017-10-08T08:21:11.098Z,98.94
2017-10-08T08:22:33.427Z,98.08
2017-10-08T08:23:33.984Z,98.57
2017-10-08T08:24:33.740Z,98.28
2017-10-08T08:25:33.984Z,97.61
2017-10-08T08:26:56.860Z,97.52
2017-10-08T08:27:57.549Z,97.52
2017-10-08T08:28:57.203Z,97.23
2017-10-08T08:29:58.840Z,97.52
2017-10-08T08:30:58.002Z,97.80
2017-10-08T08:31:57.071Z,98.08
2017-10-08T08:33:19.363Z,98.94
2017-10-08T08:34:20.285Z,98.47
2017-10-08T08:36:04.645Z,97.56
2017-10-08T08:37:26.835Z,95.22
2017-10-08T08:38:52.794Z,95.79
2017-10-08T08:39:50.776Z,96.17
2017-10-08T08:42:19.671Z,96.46
2017-10-08T08:43:19.592Z,96.56
2017-10-08T08:44:20.452Z,95.70
2017-10-08T08:45:20.831Z,95.51
2017-10-08T08:46:19.728Z,95.03
2017-10-08T08:47:21.099Z,95.07
2017-10-08T08:49:08.502Z,95.27
2017-10-08T08:52:26.715Z,94.46
2017-10-08T08:53:26.607Z,92.83
2017-10-08T08:54:34.914Z,93.79
2017-10-08T08:55:36.551Z,92.21
2017-10-08T08:56:28.443Z,93.36
2017-10-08T08:57:25.989Z,92.45
2017-10-08T08:58:25.718Z,93.12
2017-10-08T08:59:26.166Z,93.02
2017-10-08T09:01:14.883Z,85.25
2017-10-08T09:02:35.586Z,79.38
2017-10-08T09:03:58.686Z,77.90
2017-10-08T09:04:57.469Z,71.34
2017-10-08T09:05:57.112Z,68.32
2017-10-08T09:06:58.348Z,68.04
2017-10-08T09:09:28.734Z,62.12
2017-10-08T09:10:50.952Z,60.03
2017-10-08T09:13:22.804Z,58.39
2017-10-08T09:14:21.675Z,58.12
2017-10-08T09:15:21.775Z,55.68
2017-10-08T09:17:52.158Z,59.69
2017-10-08T09:20:44.309Z,64.89
2017-10-08T09:21:45.210Z,64.15
2017-10-08T09:22:44.917Z,61.58
2017-10-08T09:25:37.657Z,66.52
2017-10-08T09:26:40.353Z,68.75
2017-10-08T09:28:45.798Z,70.38
2017-10-08T09:30:09.988Z,70.54
2017-10-08T09:31:31.985Z,71.75
2017-10-08T09:32:32.464Z,72.80
2017-10-08T09:33:32.694Z,72.00
2017-10-08T09:35:41.210Z,71.52
2017-10-08T09:36:42.031Z,70.48
2017-10-08T09:37:41.836Z,64.98
2017-10-08T09:39:26.152Z,56.54
2017-10-08T09:40:28.722Z,55.27
2017-10-08T09:41:26.585Z,52.23
2017-10-08T09:42:26.054Z,50.79
2017-10-08T09:43:48.506Z,52.49
2017-10-08T09:44:49.403Z,55.65
2017-10-08T09:45:48.924Z,53.19
2017-10-08T09:47:12.634Z,53.53
2017-10-08T09:48:35.583Z,56.10
2017-10-08T09:49:58.460Z,57.45
2017-10-08T09:51:00.742Z,57.60
2017-10-08T09:52:00.189Z,58.51
2017-10-08T09:53:33.320Z,62.01
2017-10-08T09:54:33.000Z,63.51
2017-10-08T09:55:33.462Z,64.85
2017-10-08T09:56:33.966Z,65.65
2017-10-08T09:57:33.975Z,64.37
2017-10-08T09:58:55.987Z,58.70
2017-10-08T10:00:43.946Z,60.14
2017-10-08T10:01:44.379Z,63.25
2017-10-08T10:02:43.355Z,64.28
2017-10-08T10:04:06.167Z,64.66
2017-10-08T10:05:07.069Z,64.69
2017-10-08T10:07:35.033Z,62.81
2017-10-08T10:10:28.603Z,67.09
2017-10-08T10:11:51.921Z,67.63
2017-10-08T10:14:00.471Z,68.14
2017-10-08T10:15:01.189Z,66.42
2017-10-08T10:16:01.187Z,59.64
2017-10-08T10:17:48.150Z,62.87
2017-10-08T10:18:48.798Z,64.66
2017-10-08T10:20:13.778Z,66.64
2017-10-08T10:21:12.678Z,66.58
2017-10-08T10:22:57.918Z,64.12
2017-10-08T10:24:21.059Z,54.20
2017-10-08T10:26:29.418Z,53.78
2017-10-08T10:27:28.680Z,54.49
2017-10-08T10:28:28.614Z,53.88
2017-10-08T10:29:28.247Z,54.79
2017-10-08T10:32:20.287Z,60.75
2017-10-08T10:33:21.596Z,60.31
2017-10-08T10:34:26.439Z,59.25
2017-10-08T10:35:20.365Z,61.65
2017-10-08T10:36:20.238Z,61.94
2017-10-08T10:37:21.237Z,61.91
2017-10-08T10:38:20.285Z,63.32
2017-10-08T10:39:21.677Z,63.19
2017-10-08T10:41:05.199Z,64.95
2017-10-08T10:42:05.903Z,65.62
2017-10-08T10:43:05.715Z,65.71
2017-10-08T10:44:50.917Z,65.62
2017-10-08T10:45:51.542Z,65.33
2017-10-08T10:47:13.840Z,66.38
2017-10-08T10:48:14.782Z,65.97
2017-10-08T10:49:15.122Z,66.93
2017-10-08T10:50:15.913Z,67.37
2017-10-08T10:51:14.656Z,66.51
2017-10-08T10:53:43.291Z,67.85
2017-10-08T10:55:52.541Z,67.85
2017-10-08T10:56:53.383Z,67.94
2017-10-08T10:57:53.291Z,68.27
2017-10-08T10:58:52.953Z,67.44
2017-10-08T11:00:15.373Z,65.62
2017-10-08T11:01:15.933Z,65.33
2017-10-08T11:02:15.855Z,64.85
2017-10-08T11:03:38.327Z,63.70
2017-10-08T11:04:38.963Z,64.05
2017-10-08T11:06:45.737Z,66.19
2017-10-08T11:07:46.508Z,64.76
2017-10-08T11:08:46.537Z,64.50
2017-10-08T11:10:31.080Z,58.03
2017-10-08T11:11:33.101Z,57.46
2017-10-08T11:15:11.316Z,63.76
2017-10-08T11:16:10.297Z,61.21
2017-10-08T11:18:17.840Z,61.82
2017-10-08T11:19:18.190Z,61.46
2017-10-08T11:20:40.387Z,54.41
2017-10-08T11:22:02.709Z,54.60
2017-10-08T11:23:25.349Z,54.28
2017-10-08T11:25:32.377Z,55.32
2017-10-08T11:26:55.380Z,55.32
2017-10-08T11:28:18.050Z,53.32
2017-10-08T11:29:18.041Z,52.91
2017-10-08T11:30:17.857Z,53.42
2017-10-08T11:31:17.633Z,52.26
2017-10-08T11:32:19.323Z,52.94
2017-10-08T11:33:18.563Z,53.01
2017-10-08T11:34:20.224Z,54.06
2017-10-08T11:35:18.219Z,51.88
2017-10-08T11:36:18.030Z,51.23
2017-10-08T11:37:18.136Z,50.56
2017-10-08T11:38:19.091Z,51.31
2017-10-08T11:39:18.004Z,52.62
2017-10-08T11:40:18.113Z,52.72
2017-10-08T11:41:18.344Z,51.14
2017-10-08T11:42:18.497Z,49.99
2017-10-08T11:43:18.794Z,50.78
2017-10-08T11:44:18.525Z,48.88
2017-10-08T11:45:18.654Z,45.21
2017-10-08T11:46:18.530Z,43.85
2017-10-08T11:47:18.602Z,46.64
2017-10-08T11:48:18.416Z,49.84
2017-10-08T11:49:19.870Z,53.24
2017-10-08T11:50:17.996Z,57.15
2017-10-08T11:51:18.328Z,57.98
2017-10-08T11:52:18.359Z,58.53
2017-10-08T11:53:19.387Z,59.97
2017-10-08T11:54:18.495Z,60.03
2017-10-08T11:55:19.529Z,60.03
2017-10-08T11:56:19.705Z,60.89
2017-10-08T11:57:17.933Z,62.33
2017-10-08T11:58:18.562Z,61.28
2017-10-08T11:59:18.430Z,61.21
2017-10-08T12:00:18.812Z,57.63
2017-10-08T12:01:18.144Z,56.27
2017-10-08T12:02:18.043Z,54.13
2017-10-08T12:03:18.137Z,52.05
2017-10-08T12:04:17.955Z,49.84
2017-10-08T12:05:17.897Z,47.94
2017-10-08T12:06:18.467Z,48.08
2017-10-08T12:07:18.469Z,47.08
2017-10-08T12:08:18.274Z,45.20
2017-10-08T12:09:18.141Z,43.12
2017-10-08T12:10:18.855Z,41.13
2017-10-08T12:11:18.527Z,39.90
2017-10-08T12:12:18.482Z,38.20
2017-10-08T12:13:18.659Z,36.65
2017-10-08T12:14:18.204Z,39.01
2017-10-08T12:15:19.096Z,40.59
2017-10-08T12:16:19.209Z,41.99
2017-10-08T12:17:19.295Z,41.77
2017-10-08T12:18:19.502Z,40.34
2017-10-08T12:19:19.871Z,39.72
2017-10-08T12:20:19.438Z,36.78
2017-10-08T12:21:20.048Z,34.97
2017-10-08T12:22:18.973Z,34.12
2017-10-08T12:23:19.549Z,33.14
2017-10-08T12:24:19.022Z,32.37
2017-10-08T12:25:18.176Z,32.20
2017-10-08T12:26:19.014Z,31.39
2017-10-08T12:27:18.567Z,35.02
2017-10-08T12:28:18.693Z,36.22
2017-10-08T12:29:18.271Z,37.81
2017-10-08T12:30:18.601Z,40.94
2017-10-08T12:31:17.860Z,44.26
2017-10-08T12:32:18.401Z,45.59
2017-10-08T12:33:18.233Z,47.30
2017-10-08T12:34:18.502Z,49.96
2017-10-08T12:35:19.072Z,49.29
2017-10-08T12:36:18.377Z,49.65
2017-10-08T12:37:20.021Z,52.79
2017-10-08T12:38:17.970Z,52.86
2017-10-08T12:39:18.176Z,53.72
2017-10-08T12:40:19.571Z,54.37
2017-10-08T12:41:18.714Z,56.29
2017-10-08T12:42:19.090Z,56.57
2017-10-08T12:43:18.892Z,56.57
2017-10-08T12:44:18.932Z,55.71
2017-10-08T12:45:18.386Z,54.75
2017-10-08T12:46:18.648Z,54.91
2017-10-08T12:47:18.790Z,55.68
2017-10-08T12:48:17.933Z,56.45
2017-10-08T12:49:18.120Z,56.83
2017-10-08T12:50:17.970Z,55.85
2017-10-08T12:51:18.841Z,56.23
2017-10-08T12:52:17.959Z,56.90
2017-10-08T12:53:18.187Z,57.38
2017-10-08T12:54:18.869Z,58.50
2017-10-08T12:55:18.277Z,59.94
2017-10-08T12:56:18.252Z,59.94
2017-10-08T12:57:19.221Z,59.62
2017-10-08T12:58:18.667Z,60.38
2017-10-08T12:59:18.786Z,61.72
2017-10-08T13:00:18.675Z,62.65
2017-10-08T13:01:19.133Z,63.80
2017-10-08T13:02:18.011Z,64.47
2017-10-08T13:03:18.779Z,64.82
2017-10-08T13:04:18.697Z,66.06
2017-10-08T13:05:19.258Z,66.35
2017-10-08T13:06:18.119Z,66.83
2017-10-08T13:07:17.861Z,66.54
2017-10-08T13:08:18.322Z,65.77
2017-10-08T13:09:18.703Z,65.71
2017-10-08T13:10:18.726Z,65.61
2017-10-08T13:11:18.554Z,63.22
2017-10-08T13:12:18.297Z,61.76
2017-10-08T13:13:18.896Z,62.30
2017-10-08T13:14:17.917Z,58.39
2017-10-08T13:15:18.007Z,56.63
2017-10-08T13:16:18.117Z,56.05
2017-10-08T13:17:18.111Z,54.90
2017-10-08T13:18:18.428Z,55.22
2017-10-08T13:19:18.321Z,52.14
2017-10-08T13:20:18.504Z,51.67
2017-10-08T13:21:18.456Z,52.72
2017-10-08T13:22:18.207Z,52.50
2017-10-08T13:23:18.484Z,52.86
2017-10-08T13:24:18.276Z,50.95
2017-10-08T13:25:18.207Z,49.87
2017-10-08T13:26:18.156Z,47.80
2017-10-08T13:27:18.205Z,47.51
2017-10-08T13:28:18.510Z,47.08
2017-10-08T13:29:19.800Z,46.23
2017-10-08T13:30:18.035Z,44.13
2017-10-08T13:31:18.134Z,43.94
2017-10-08T13:32:18.160Z,42.61
2017-10-08T13:33:19.982Z,42.44
2017-10-08T13:34:18.325Z,40.70
2017-10-08T13:35:19.049Z,41.11
2017-10-08T13:36:19.029Z,39.78
2017-10-08T13:37:18.212Z,38.43
2017-10-08T13:38:18.642Z,39.69
2017-10-08T13:39:19.475Z,39.59
2017-10-08T13:40:18.558Z,39.09
2017-10-08T13:41:18.708Z,40.32
2017-10-08T13:42:19.666Z,39.84
2017-10-08T13:43:18.783Z,41.34
2017-10-08T13:44:17.616Z,42.30
2017-10-08T13:45:18.055Z,43.27
2017-10-08T13:46:17.880Z,41.84
2017-10-08T13:47:18.005Z,41.27
2017-10-08T13:48:18.208Z,41.94
2017-10-08T13:49:18.686Z,40.88
2017-10-08T13:50:18.402Z,41.46
2017-10-08T13:51:18.667Z,41.30
2017-10-08T13:52:18.185Z,40.80
2017-10-08T13:53:19.203Z,40.90
2017-10-08T13:54:18.723Z,42.11
2017-10-08T13:55:18.530Z,43.71
2017-10-08T13:56:17.926Z,47.34
2017-10-08T13:57:17.827Z,46.62
2017-10-08T13:58:17.864Z,48.71
2017-10-08T13:59:18.750Z,49.57
2017-10-08T14:00:18.515Z,50.58
2017-10-08T14:01:18.179Z,51.35
2017-10-08T14:02:18.061Z,51.83
2017-10-08T14:03:19.999Z,52.19
2017-10-08T14:04:18.482Z,52.38
2017-10-08T14:05:18.613Z,52.83
2017-10-08T14:06:19.040Z,53.48
2017-10-08T14:07:18.036Z,54.34
2017-10-08T14:08:18.024Z,55.27
2017-10-08T14:09:18.399Z,55.34
2017-10-08T14:10:18.724Z,56.84
2017-10-08T14:11:18.558Z,58.28
2017-10-08T14:12:19.176Z,59.59
2017-10-08T14:13:18.274Z,60.83
2017-10-08T14:14:19.229Z,61.98
2017-10-08T14:15:19.098Z,62.27
2017-10-08T14:16:18.022Z,63.32
2017-10-08T14:17:18.277Z,63.29
2017-10-08T14:18:18.995Z,64.05
2017-10-08T14:19:19.031Z,63.86
2017-10-08T14:20:19.661Z,63.67
2017-10-08T14:21:19.821Z,64.34
2017-10-08T14:22:18.272Z,64.25
2017-10-08T14:23:18.835Z,64.43
2017-10-08T14:24:19.220Z,64.56
2017-10-08T14:25:18.427Z,64.18
2017-10-08T14:26:18.405Z,62.33
2017-10-08T14:27:18.549Z,60.89
2017-10-08T14:28:19.175Z,60.25
2017-10-08T14:29:18.260Z,57.72
2017-10-08T14:30:18.280Z,55.45
2017-10-08T14:31:18.989Z,56.16
2017-10-08T14:32:18.112Z,57.34
2017-10-08T14:33:18.106Z,56.29
2017-10-08T14:34:18.270Z,55.78
2017-10-08T14:35:18.534Z,57.70
2017-10-08T14:36:18.163Z,57.76
2017-10-08T14:37:18.814Z,58.72
2017-10-08T14:38:18.351Z,57.24
2017-10-08T14:39:19.305Z,55.64
2017-10-08T14:40:20.483Z,54.52
2017-10-08T14:41:18.568Z,53.94
2017-10-08T14:42:17.797Z,54.01
2017-10-08T14:43:17.804Z,54.04
2017-10-08T14:44:19.033Z,53.27
2017-10-08T14:45:18.417Z,53.85
2017-10-08T14:46:18.794Z,54.30
2017-10-08T14:47:18.517Z,55.13
2017-10-08T14:48:18.400Z,56.29
2017-10-08T14:49:17.834Z,55.16
2017-10-08T14:50:18.154Z,54.68
2017-10-08T14:51:18.046Z,53.82
2017-10-08T14:52:18.556Z,53.24
2017-10-08T14:53:18.423Z,53.82
2017-10-08T14:54:19.095Z,54.08
2017-10-08T14:55:19.889Z,55.04
2017-10-08T14:56:18.382Z,55.68
2017-10-08T14:57:18.477Z,56.07
2017-10-08T14:58:19.031Z,56.35
2017-10-08T14:59:18.680Z,56.93
2017-10-08T15:00:18.242Z,57.86
2017-10-08T15:01:18.179Z,58.62
2017-10-08T15:02:18.614Z,58.44
2017-10-08T15:03:18.299Z,57.70
2017-10-08T15:04:18.431Z,57.12
2017-10-08T15:05:19.762Z,57.70
2017-10-08T15:06:18.396Z,57.95
2017-10-08T15:07:18.228Z,58.24
2017-10-08T15:08:18.613Z,59.17
2017-10-08T15:09:17.740Z,60.13
2017-10-08T15:10:18.636Z,60.16
2017-10-08T15:11:18.253Z,59.58
2017-10-08T15:12:18.699Z,59.68
2017-10-08T15:13:18.072Z,59.87
2017-10-08T15:14:17.961Z,60.03
2017-10-08T15:15:19.174Z,60.80
2017-10-08T15:16:18.141Z,60.99
2017-10-08T15:17:18.408Z,61.57
2017-10-08T15:18:18.518Z,62.11
2017-10-08T15:19:18.335Z,62.59
2017-10-08T15:20:18.618Z,63.99
2017-10-08T15:21:18.608Z,64.37
2017-10-08T15:22:19.472Z,64.56
2017-10-08T15:23:19.270Z,65.33
2017-10-08T15:24:18.340Z,65.87
2017-10-08T15:25:19.006Z,65.77
2017-10-08T15:26:18.121Z,65.87
2017-10-08T15:27:18.147Z,67.40
2017-10-08T15:28:18.099Z,67.94
2017-10-08T15:29:18.066Z,67.55
2017-10-08T15:30:18.520Z,67.94
2017-10-08T15:31:18.540Z,68.23
2017-10-08T15:32:18.285Z,68.51
2017-10-08T15:33:18.910Z,68.80
2017-10-08T15:34:18.753Z,68.80
2017-10-08T15:35:18.095Z,68.90
2017-10-08T15:36:18.460Z,69.09
2017-10-08T15:37:18.570Z,69.09